Time,TemperatureF,DewpointF,PressureIn,WindDirection,WindDirectionDegrees,WindSpeedMPH,WindSpeedGustMPH,Humidity,HourlyPrecipIn,Conditions,Clouds,dailyrainin,SoftwareType,DateUTC
2013-08-16 00:03:00,63.7,58.8,30.04,North,-999,0.0,1.6,84,0.00,,,0.02,pywws,2013-08-15 23:03:00,
2013-08-16 00:06:00,63.5,58.6,30.04,North,-999,0.0,2.2,84,0.00,,,0.00,pywws,2013-08-15 23:06:00,
2013-08-16 00:11:00,63.3,58.4,30.04,North,-999,0.0,1.6,84,0.00,,,0.00,pywws,2013-08-15 23:11:00,
2013-08-16 00:16:00,63.3,58.4,30.04,North,-999,0.0,0.7,84,0.00,,,0.00,pywws,2013-08-15 23:16:00,
2013-08-16 00:21:00,63.3,58.4,30.04,North,-999,0.0,0.0,84,0.00,,,0.00,pywws,2013-08-15 23:21:00,
2013-08-16 00:32:00,63.1,58.2,30.04,North,-999,0.0,0.7,84,0.00,,,0.00,pywws,2013-08-15 23:32:00,
2013-08-16 00:36:00,63.0,58.4,30.04,North,-999,0.0,1.6,85,0.00,,,0.00,pywws,2013-08-15 23:36:00,
2013-08-16 00:41:00,63.1,58.6,30.04,North,-999,0.0,2.2,85,0.00,,,0.00,pywws,2013-08-15 23:41:00,
2013-08-16 00:46:00,63.0,58.4,30.04,North,-999,0.0,0.7,85,0.00,,,0.00,pywws,2013-08-15 23:46:00,
2013-08-16 00:51:00,63.0,58.4,30.04,North,-999,0.0,1.6,85,0.00,,,0.00,pywws,2013-08-15 23:51:00,
2013-08-16 01:02:00,63.0,58.4,30.04,North,-999,0.0,0.0,85,0.00,,,0.00,pywws,2013-08-16 00:02:00,
2013-08-16 01:06:00,62.8,58.2,30.04,North,-999,0.0,0.0,85,0.00,,,0.00,pywws,2013-08-16 00:06:00,
2013-08-16 01:11:00,62.6,58.3,30.04,North,-999,0.0,1.6,86,0.00,,,0.00,pywws,2013-08-16 00:11:00,
2013-08-16 01:16:00,62.6,58.3,30.04,North,-999,0.0,0.7,86,0.00,,,0.00,pywws,2013-08-16 00:16:00,
2013-08-16 01:21:00,62.6,58.3,30.04,North,-999,0.0,1.6,86,0.00,,,0.00,pywws,2013-08-16 00:21:00,
2013-08-16 01:31:00,62.6,58.7,30.04,North,-999,0.0,1.6,87,0.00,,,0.00,pywws,2013-08-16 00:31:00,
2013-08-16 01:36:00,62.8,58.8,30.03,North,-999,0.0,1.6,87,0.00,,,0.00,pywws,2013-08-16 00:36:00,
2013-08-16 01:41:00,62.8,58.8,30.03,North,-999,0.0,0.0,87,0.00,,,0.00,pywws,2013-08-16 00:41:00,
2013-08-16 01:46:00,62.8,58.8,30.03,North,-999,0.0,0.7,87,0.00,,,0.00,pywws,2013-08-16 00:46:00,
2013-08-16 01:51:00,62.8,58.8,30.03,North,-999,0.0,2.2,87,0.00,,,0.00,pywws,2013-08-16 00:51:00,
2013-08-16 02:01:00,62.8,58.8,30.03,North,-999,0.0,0.7,87,0.00,,,0.00,pywws,2013-08-16 01:01:00,
2013-08-16 02:06:00,62.8,58.8,30.03,North,-999,0.0,0.7,87,0.00,,,0.00,pywws,2013-08-16 01:06:00,
2013-08-16 02:11:00,62.8,58.8,30.03,North,-999,0.0,1.6,87,0.00,,,0.00,pywws,2013-08-16 01:11:00,
2013-08-16 02:16:00,62.8,58.8,30.03,North,-999,0.0,0.0,87,0.00,,,0.00,pywws,2013-08-16 01:16:00,
2013-08-16 02:21:00,62.6,58.7,30.03,North,-999,0.0,0.7,87,0.00,,,0.00,pywws,2013-08-16 01:21:00,
2013-08-16 02:33:00,62.6,58.7,30.03,North,-999,0.0,2.2,87,0.00,,,0.00,pywws,2013-08-16 01:33:00,
2013-08-16 02:36:00,62.6,59.0,30.02,North,-999,0.0,0.0,88,0.00,,,0.00,pywws,2013-08-16 01:36:00,
2013-08-16 02:41:00,62.6,59.0,30.02,North,-999,0.0,0.7,88,0.00,,,0.00,pywws,2013-08-16 01:41:00,
2013-08-16 02:46:00,62.6,59.0,30.02,North,-999,0.0,0.0,88,0.00,,,0.00,pywws,2013-08-16 01:46:00,
2013-08-16 02:51:00,62.6,59.0,30.02,North,-999,0.0,0.7,88,0.00,,,0.00,pywws,2013-08-16 01:51:00,
2013-08-16 03:01:00,62.6,59.0,30.02,North,-999,0.0,1.6,88,0.00,,,0.00,pywws,2013-08-16 02:01:00,
2013-08-16 03:06:00,62.8,59.2,30.02,North,-999,0.0,0.0,88,0.00,,,0.00,pywws,2013-08-16 02:06:00,
2013-08-16 03:11:00,62.6,59.0,30.02,North,-999,0.0,0.7,88,0.00,,,0.00,pywws,2013-08-16 02:11:00,
2013-08-16 03:16:00,62.6,59.0,30.02,North,-999,0.0,0.7,88,0.00,,,0.00,pywws,2013-08-16 02:16:00,
2013-08-16 03:21:00,62.6,59.0,30.02,North,-999,0.0,0.7,88,0.00,,,0.00,pywws,2013-08-16 02:21:00,
2013-08-16 03:31:00,62.6,58.7,30.02,North,-999,0.0,2.2,87,0.00,,,0.00,pywws,2013-08-16 02:31:00,
2013-08-16 03:36:00,62.8,58.8,30.02,North,-999,0.0,0.7,87,0.00,,,0.00,pywws,2013-08-16 02:36:00,
2013-08-16 03:41:00,62.6,58.7,30.01,North,-999,0.0,0.0,87,0.00,,,0.00,pywws,2013-08-16 02:41:00,
2013-08-16 03:46:00,62.8,58.8,30.01,North,-999,0.0,0.7,87,0.00,,,0.00,pywws,2013-08-16 02:46:00,
2013-08-16 03:51:00,62.8,58.8,30.01,North,-999,0.0,0.7,87,0.00,,,0.00,pywws,2013-08-16 02:51:00,
2013-08-16 04:01:00,62.8,58.8,30.01,North,-999,0.0,1.6,87,0.00,,,0.00,pywws,2013-08-16 03:01:00,
2013-08-16 04:06:00,62.8,58.8,30.01,North,-999,0.0,0.7,87,0.00,,,0.00,pywws,2013-08-16 03:06:00,
2013-08-16 04:11:00,62.6,58.7,30.01,North,-999,0.0,0.0,87,0.00,,,0.00,pywws,2013-08-16 03:11:00,
2013-08-16 04:16:00,62.6,58.7,30.01,North,-999,0.0,0.7,87,0.00,,,0.00,pywws,2013-08-16 03:16:00,
2013-08-16 04:21:00,62.6,59.0,30.01,North,-999,0.0,0.0,88,0.00,,,0.00,pywws,2013-08-16 03:21:00,
2013-08-16 04:31:00,62.6,59.0,30.01,North,-999,0.0,0.0,88,0.00,,,0.00,pywws,2013-08-16 03:31:00,
2013-08-16 04:36:00,62.6,59.0,30.00,North,-999,0.0,1.6,88,0.00,,,0.00,pywws,2013-08-16 03:36:00,
2013-08-16 04:41:00,62.6,59.0,30.00,North,-999,0.0,0.0,88,0.00,,,0.00,pywws,2013-08-16 03:41:00,
2013-08-16 04:46:00,62.6,59.0,30.00,North,-999,0.0,1.6,88,0.00,,,0.00,pywws,2013-08-16 03:46:00,
2013-08-16 04:51:00,62.6,59.0,30.00,North,-999,0.0,0.0,88,0.00,,,0.00,pywws,2013-08-16 03:51:00,
2013-08-16 05:01:00,62.6,59.0,30.00,North,-999,0.0,0.7,88,0.00,,,0.00,pywws,2013-08-16 04:01:00,
2013-08-16 05:06:00,62.6,59.0,30.00,North,-999,0.0,3.8,88,0.00,,,0.00,pywws,2013-08-16 04:06:00,
2013-08-16 05:11:00,62.6,59.0,30.00,North,-999,0.0,0.0,88,0.00,,,0.00,pywws,2013-08-16 04:11:00,
2013-08-16 05:16:00,62.6,59.0,29.99,North,-999,0.0,0.7,88,0.00,,,0.00,pywws,2013-08-16 04:16:00,
2013-08-16 05:21:00,62.6,59.0,29.99,North,-999,0.0,1.6,88,0.00,,,0.00,pywws,2013-08-16 04:21:00,
2013-08-16 05:31:00,62.8,59.2,30.00,North,-999,0.0,0.7,88,0.00,,,0.00,pywws,2013-08-16 04:31:00,
2013-08-16 05:36:00,62.8,59.2,30.00,North,-999,0.0,0.0,88,0.00,,,0.00,pywws,2013-08-16 04:36:00,
2013-08-16 05:41:00,62.8,59.2,29.99,North,-999,0.0,0.7,88,0.00,,,0.00,pywws,2013-08-16 04:41:00,
2013-08-16 05:46:00,62.8,59.2,30.00,North,-999,0.0,0.7,88,0.00,,,0.00,pywws,2013-08-16 04:46:00,
2013-08-16 05:51:00,63.0,59.3,30.00,North,-999,0.0,1.6,88,0.00,,,0.00,pywws,2013-08-16 04:51:00,
2013-08-16 06:01:00,63.0,59.3,29.99,North,-999,0.0,1.6,88,0.00,,,0.00,pywws,2013-08-16 05:01:00,
2013-08-16 06:06:00,63.0,59.3,30.00,North,-999,0.0,3.1,88,0.00,,,0.00,pywws,2013-08-16 05:06:00,
2013-08-16 06:11:00,63.0,59.3,30.00,North,-999,0.0,0.7,88,0.00,,,0.00,pywws,2013-08-16 05:11:00,
2013-08-16 06:16:00,63.1,59.5,29.99,North,-999,0.0,0.7,88,0.00,,,0.00,pywws,2013-08-16 05:16:00,
2013-08-16 06:21:00,63.0,59.3,30.00,North,-999,0.0,0.0,88,0.00,,,0.00,pywws,2013-08-16 05:21:00,
2013-08-16 06:31:00,63.0,59.3,30.00,North,-999,0.0,1.6,88,0.00,,,0.00,pywws,2013-08-16 05:31:00,
2013-08-16 06:36:00,63.1,59.5,29.99,North,-999,0.0,0.7,88,0.00,,,0.00,pywws,2013-08-16 05:36:00,
2013-08-16 06:41:00,63.1,59.2,29.99,North,-999,0.0,1.6,87,0.00,,,0.00,pywws,2013-08-16 05:41:00,
2013-08-16 06:46:00,63.1,59.5,29.99,North,-999,0.0,0.0,88,0.00,,,0.00,pywws,2013-08-16 05:46:00,
2013-08-16 06:51:00,63.3,59.4,29.99,North,-999,0.0,1.6,87,0.00,,,0.00,pywws,2013-08-16 05:51:00,
2013-08-16 07:06:00,63.3,59.4,29.99,North,-999,0.0,0.7,87,0.00,,,0.00,pywws,2013-08-16 06:06:00,
2013-08-16 07:11:00,63.5,59.6,30.00,North,-999,0.0,0.0,87,0.00,,,0.00,pywws,2013-08-16 06:11:00,
2013-08-16 07:16:00,63.5,59.6,29.99,North,-999,0.0,0.7,87,0.00,,,0.00,pywws,2013-08-16 06:16:00,
2013-08-16 07:21:00,63.5,59.6,29.99,North,-999,0.0,2.2,87,0.00,,,0.00,pywws,2013-08-16 06:21:00,
2013-08-16 07:31:00,63.5,59.6,29.99,North,-999,0.0,0.0,87,0.00,,,0.00,pywws,2013-08-16 06:31:00,
2013-08-16 07:36:00,63.5,59.6,29.99,North,-999,0.0,2.2,87,0.00,,,0.00,pywws,2013-08-16 06:36:00,
2013-08-16 07:41:00,63.5,59.6,29.99,North,-999,0.0,0.0,87,0.00,,,0.00,pywws,2013-08-16 06:41:00,
2013-08-16 07:46:00,63.7,60.1,29.99,North,-999,0.0,0.7,88,0.00,,,0.00,pywws,2013-08-16 06:46:00,
2013-08-16 07:51:00,63.7,60.1,29.99,North,-999,0.0,4.5,88,0.00,,,0.00,pywws,2013-08-16 06:51:00,
2013-08-16 08:01:00,63.7,60.1,29.99,North,-999,0.0,2.2,88,0.00,,,0.00,pywws,2013-08-16 07:01:00,
2013-08-16 08:06:00,63.7,60.1,29.99,North,-999,0.0,0.0,88,0.00,,,0.00,pywws,2013-08-16 07:06:00,
2013-08-16 08:11:00,63.9,60.2,29.99,North,-999,0.0,0.7,88,0.00,,,0.00,pywws,2013-08-16 07:11:00,
2013-08-16 08:16:00,63.9,60.2,29.99,North,-999,0.0,2.2,88,0.00,,,0.00,pywws,2013-08-16 07:16:00,
2013-08-16 08:21:00,63.7,60.1,30.00,North,-999,0.0,0.7,88,0.00,,,0.00,pywws,2013-08-16 07:21:00,
2013-08-16 08:31:00,63.7,60.1,30.00,North,-999,0.0,0.7,88,0.00,,,0.00,pywws,2013-08-16 07:31:00,
2013-08-16 08:36:00,63.9,60.6,30.00,North,-999,0.0,0.7,89,0.00,,,0.00,pywws,2013-08-16 07:36:00,
2013-08-16 08:41:00,63.7,60.4,30.00,North,-999,0.0,0.7,89,0.00,,,0.00,pywws,2013-08-16 07:41:00,
2013-08-16 08:46:00,63.7,60.4,30.00,North,-999,0.0,1.6,89,0.00,,,0.00,pywws,2013-08-16 07:46:00,
2013-08-16 08:51:00,63.5,60.2,30.00,North,-999,0.0,0.7,89,0.00,,,0.00,pywws,2013-08-16 07:51:00,
2013-08-16 09:01:00,63.5,60.5,30.00,North,-999,0.0,0.7,90,0.00,,,0.00,pywws,2013-08-16 08:01:00,
2013-08-16 09:06:00,63.7,60.7,30.00,North,-999,0.0,0.7,90,0.00,,,0.00,pywws,2013-08-16 08:06:00,
2013-08-16 09:12:00,63.9,61.2,30.00,North,-999,0.0,3.1,91,0.01,,,0.01,pywws,2013-08-16 08:12:00,
2013-08-16 09:17:00,64.0,61.4,30.00,North,-999,0.0,1.6,91,0.01,,,0.01,pywws,2013-08-16 08:17:00,
2013-08-16 09:22:00,64.0,61.4,30.00,North,-999,0.0,0.7,91,0.01,,,0.01,pywws,2013-08-16 08:22:00,
2013-08-16 09:33:00,64.2,61.5,30.00,North,-999,0.0,0.0,91,0.01,,,0.01,pywws,2013-08-16 08:33:00,
2013-08-16 09:38:00,64.4,61.7,30.00,North,-999,0.0,0.0,91,0.01,,,0.01,pywws,2013-08-16 08:38:00,
2013-08-16 09:44:00,64.4,61.7,30.00,North,-999,0.0,0.7,91,0.01,,,0.01,pywws,2013-08-16 08:44:00,
2013-08-16 09:49:00,64.4,61.7,30.00,North,-999,0.0,0.7,91,0.01,,,0.01,pywws,2013-08-16 08:49:00,
2013-08-16 09:54:00,64.6,61.9,30.00,North,-999,0.0,0.7,91,0.01,,,0.01,pywws,2013-08-16 08:54:00,
2013-08-16 10:05:00,64.4,61.4,30.00,North,-999,0.0,1.6,90,0.01,,,0.01,pywws,2013-08-16 09:05:00,
2013-08-16 10:10:00,64.4,61.4,30.00,North,-999,0.0,0.7,90,0.00,,,0.01,pywws,2013-08-16 09:10:00,
2013-08-16 10:16:00,64.4,61.7,30.00,North,-999,0.0,1.6,91,0.00,,,0.01,pywws,2013-08-16 09:16:00,
2013-08-16 10:21:00,64.6,61.9,30.00,North,-999,0.0,0.7,91,0.00,,,0.01,pywws,2013-08-16 09:21:00,
2013-08-16 10:32:00,64.8,61.8,30.00,North,-999,0.0,0.7,90,0.00,,,0.01,pywws,2013-08-16 09:32:00,
2013-08-16 10:37:00,64.9,61.9,30.00,North,-999,0.0,0.0,90,0.00,,,0.01,pywws,2013-08-16 09:37:00,
2013-08-16 10:42:00,64.9,61.9,30.00,North,-999,0.0,3.8,90,0.00,,,0.01,pywws,2013-08-16 09:42:00,
2013-08-16 10:48:00,65.5,62.8,29.99,North,-999,0.0,0.0,91,0.00,,,0.01,pywws,2013-08-16 09:48:00,
2013-08-16 10:53:00,65.7,62.6,29.99,NE,45,0.7,2.2,90,0.00,,,0.01,pywws,2013-08-16 09:53:00,
2013-08-16 11:04:00,65.7,62.3,30.00,South,180,0.7,3.1,89,0.00,,,0.01,pywws,2013-08-16 10:04:00,
2013-08-16 11:09:00,65.5,62.1,30.00,North,-999,0.0,0.7,89,0.00,,,0.01,pywws,2013-08-16 10:09:00,
2013-08-16 11:14:00,65.7,62.3,29.99,North,-999,0.0,1.6,89,0.00,,,0.01,pywws,2013-08-16 10:14:00,
2013-08-16 11:20:00,65.5,62.1,29.99,North,-999,0.0,1.6,89,0.00,,,0.01,pywws,2013-08-16 10:20:00,
2013-08-16 11:25:00,66.0,63.0,29.99,North,-999,0.0,0.7,90,0.00,,,0.01,pywws,2013-08-16 10:25:00,
2013-08-16 11:36:00,66.4,63.4,29.99,North,-999,0.0,2.2,90,0.00,,,0.01,pywws,2013-08-16 10:36:00,
2013-08-16 11:41:00,66.7,63.4,29.99,North,-999,0.0,0.7,89,0.01,,,0.02,pywws,2013-08-16 10:41:00,
2013-08-16 11:46:00,66.6,63.2,29.99,North,-999,0.0,1.6,89,0.01,,,0.02,pywws,2013-08-16 10:46:00,
2013-08-16 11:52:00,67.1,63.7,29.99,North,-999,0.0,1.6,89,0.01,,,0.02,pywws,2013-08-16 10:52:00,
2013-08-16 12:02:00,67.3,63.9,29.99,North,-999,0.0,0.7,89,0.01,,,0.02,pywws,2013-08-16 11:02:00,
2013-08-16 12:08:00,67.3,63.6,29.99,West,270,0.7,3.8,88,0.01,,,0.02,pywws,2013-08-16 11:08:00,
2013-08-16 12:13:00,67.1,63.1,29.98,North,-999,0.0,1.6,87,0.01,,,0.02,pywws,2013-08-16 11:13:00,
2013-08-16 12:18:00,66.9,62.9,29.99,North,-999,0.0,1.6,87,0.01,,,0.02,pywws,2013-08-16 11:18:00,
2013-08-16 12:24:00,67.1,63.4,29.99,North,-999,0.0,0.7,88,0.01,,,0.02,pywws,2013-08-16 11:24:00,
2013-08-16 12:34:00,67.6,64.0,29.98,South,180,0.7,3.1,88,0.01,,,0.02,pywws,2013-08-16 11:34:00,
2013-08-16 12:40:00,68.7,64.7,29.99,North,-999,0.0,0.7,87,0.00,,,0.02,pywws,2013-08-16 11:40:00,
2013-08-16 12:45:00,68.5,63.8,29.99,North,-999,0.0,0.7,85,0.00,,,0.02,pywws,2013-08-16 11:45:00,
2013-08-16 12:50:00,68.5,63.8,29.98,North,-999,0.0,2.2,85,0.00,,,0.02,pywws,2013-08-16 11:50:00,
2013-08-16 13:01:00,68.4,63.7,29.98,North,-999,0.0,1.6,85,0.00,,,0.02,pywws,2013-08-16 12:01:00,
2013-08-16 13:06:00,68.0,63.3,29.98,North,-999,0.0,0.7,85,0.00,,,0.02,pywws,2013-08-16 12:06:00,
2013-08-16 13:12:00,68.0,63.6,29.98,North,-999,0.0,1.6,86,0.00,,,0.02,pywws,2013-08-16 12:12:00,
2013-08-16 13:17:00,68.7,64.4,29.98,North,-999,0.0,0.7,86,0.00,,,0.02,pywws,2013-08-16 12:17:00,
2013-08-16 13:22:00,69.3,64.2,29.98,North,-999,0.0,4.5,84,0.00,,,0.02,pywws,2013-08-16 12:22:00,
2013-08-16 13:33:00,69.1,63.3,29.98,North,-999,0.0,3.1,82,0.00,,,0.02,pywws,2013-08-16 12:33:00,
2013-08-16 13:38:00,68.0,62.3,29.99,South,180,0.7,3.1,82,0.00,,,0.02,pywws,2013-08-16 12:38:00,
2013-08-16 13:44:00,68.0,62.6,29.98,North,-999,0.0,1.6,83,0.00,,,0.02,pywws,2013-08-16 12:44:00,
2013-08-16 13:49:00,68.2,63.2,29.98,North,-999,0.0,1.6,84,0.00,,,0.02,pywws,2013-08-16 12:49:00,
2013-08-16 13:54:00,68.4,63.0,29.98,North,-999,0.0,0.0,83,0.00,,,0.02,pywws,2013-08-16 12:54:00,
2013-08-16 14:05:00,68.9,63.5,29.98,North,-999,0.0,3.8,83,0.00,,,0.02,pywws,2013-08-16 13:05:00,
2013-08-16 14:10:00,70.3,64.2,29.98,North,-999,0.0,0.7,81,0.00,,,0.02,pywws,2013-08-16 13:10:00,
2013-08-16 14:16:00,71.4,64.6,29.98,North,-999,0.0,0.0,79,0.00,,,0.02,pywws,2013-08-16 13:16:00,
2013-08-16 14:21:00,72.0,64.3,29.98,North,-999,0.0,3.1,77,0.00,,,0.02,pywws,2013-08-16 13:21:00,
2013-08-16 14:32:00,72.1,63.8,29.98,North,-999,0.0,1.6,75,0.00,,,0.02,pywws,2013-08-16 13:32:00,
2013-08-16 14:37:00,72.3,63.6,29.98,North,-999,0.0,0.7,74,0.00,,,0.02,pywws,2013-08-16 13:37:00,
2013-08-16 14:42:00,72.0,63.6,29.98,North,-999,0.0,0.7,75,0.00,,,0.02,pywws,2013-08-16 13:42:00,
2013-08-16 14:48:00,72.3,63.6,29.98,North,-999,0.0,1.6,74,0.00,,,0.02,pywws,2013-08-16 13:48:00,
2013-08-16 14:53:00,72.5,63.7,29.98,North,-999,0.0,1.6,74,0.00,,,0.02,pywws,2013-08-16 13:53:00,
2013-08-16 15:04:00,72.3,63.6,29.98,North,-999,0.0,1.6,74,0.00,,,0.02,pywws,2013-08-16 14:04:00,
2013-08-16 15:09:00,71.6,62.9,29.98,North,-999,0.0,0.7,74,0.00,,,0.02,pywws,2013-08-16 14:09:00,
2013-08-16 15:14:00,71.4,63.1,29.98,North,-999,0.0,0.0,75,0.00,,,0.02,pywws,2013-08-16 14:14:00,
2013-08-16 15:20:00,71.2,62.9,29.98,North,-999,0.0,0.0,75,0.00,,,0.02,pywws,2013-08-16 14:20:00,
2013-08-16 15:25:00,71.4,63.1,29.98,North,-999,0.0,0.0,75,0.00,,,0.02,pywws,2013-08-16 14:25:00,
2013-08-16 15:36:00,71.6,63.2,29.98,South,180,0.7,3.1,75,0.00,,,0.02,pywws,2013-08-16 14:36:00,
2013-08-16 15:41:00,72.3,63.2,29.97,North,-999,0.0,3.8,73,0.00,,,0.02,pywws,2013-08-16 14:41:00,
2013-08-16 15:46:00,72.9,63.3,29.97,North,-999,0.0,1.6,72,0.00,,,0.02,pywws,2013-08-16 14:46:00,
2013-08-16 15:52:00,73.0,63.1,29.97,North,-999,0.0,1.6,71,0.00,,,0.02,pywws,2013-08-16 14:52:00,
2013-08-16 16:02:00,72.7,62.7,29.97,North,-999,0.0,0.7,71,0.00,,,0.02,pywws,2013-08-16 15:02:00,
2013-08-16 16:08:00,72.9,63.3,29.97,NW,315,0.7,3.1,72,0.00,,,0.02,pywws,2013-08-16 15:08:00,
2013-08-16 16:13:00,73.2,63.2,29.97,SW,225,0.7,2.2,71,0.00,,,0.02,pywws,2013-08-16 15:13:00,
2013-08-16 16:18:00,73.9,63.9,29.97,North,-999,0.0,2.2,71,0.00,,,0.02,pywws,2013-08-16 15:18:00,
2013-08-16 16:24:00,74.5,64.0,29.97,North,-999,0.0,0.0,70,0.00,,,0.02,pywws,2013-08-16 15:24:00,
2013-08-16 16:34:00,74.7,63.4,29.97,North,-999,0.0,1.6,68,0.00,,,0.02,pywws,2013-08-16 15:34:00,
2013-08-16 16:40:00,73.9,63.1,29.97,North,-999,0.0,0.0,69,0.00,,,0.02,pywws,2013-08-16 15:40:00,
2013-08-16 16:45:00,73.8,63.4,29.97,North,-999,0.0,0.0,70,0.00,,,0.02,pywws,2013-08-16 15:45:00,
2013-08-16 16:50:00,73.8,63.4,29.97,North,-999,0.0,0.7,70,0.00,,,0.02,pywws,2013-08-16 15:50:00,
2013-08-16 17:01:00,73.8,63.4,29.97,North,-999,0.0,2.2,70,0.00,,,0.02,pywws,2013-08-16 16:01:00,
2013-08-16 17:06:00,73.8,62.9,29.97,North,-999,0.0,0.7,69,0.00,,,0.02,pywws,2013-08-16 16:06:00,
2013-08-16 17:12:00,74.1,63.3,29.97,North,-999,0.0,2.2,69,0.00,,,0.02,pywws,2013-08-16 16:12:00,
2013-08-16 17:17:00,73.8,62.9,29.97,North,-999,0.0,3.1,69,0.00,,,0.02,pywws,2013-08-16 16:17:00,
2013-08-16 17:22:00,73.4,62.6,29.97,North,-999,0.0,2.2,69,0.00,,,0.02,pywws,2013-08-16 16:22:00,
2013-08-16 17:33:00,73.4,63.0,29.97,North,-999,0.0,1.6,70,0.00,,,0.02,pywws,2013-08-16 16:33:00,
2013-08-16 17:38:00,73.4,63.4,29.98,North,-999,0.0,0.7,71,0.00,,,0.02,pywws,2013-08-16 16:38:00,
2013-08-16 17:44:00,73.0,63.1,29.98,North,-999,0.0,0.7,71,0.00,,,0.02,pywws,2013-08-16 16:44:00,
2013-08-16 17:49:00,72.9,62.9,29.97,North,-999,0.0,2.2,71,0.00,,,0.02,pywws,2013-08-16 16:49:00,
2013-08-16 17:54:00,72.7,62.7,29.97,North,-999,0.0,0.7,71,0.00,,,0.02,pywws,2013-08-16 16:54:00,
2013-08-16 18:05:00,72.7,63.1,29.97,North,-999,0.0,0.7,72,0.00,,,0.02,pywws,2013-08-16 17:05:00,
2013-08-16 18:10:00,72.3,63.2,29.98,North,-999,0.0,0.0,73,0.00,,,0.02,pywws,2013-08-16 17:10:00,
2013-08-16 18:16:00,72.3,62.8,29.98,North,-999,0.0,0.7,72,0.00,,,0.02,pywws,2013-08-16 17:16:00,
2013-08-16 18:21:00,72.3,63.2,29.97,North,-999,0.0,0.0,73,0.00,,,0.02,pywws,2013-08-16 17:21:00,
2013-08-16 18:32:00,72.1,63.0,29.97,North,-999,0.0,0.0,73,0.00,,,0.02,pywws,2013-08-16 17:32:00,
2013-08-16 18:37:00,72.7,63.1,29.97,North,-999,0.0,0.0,72,0.00,,,0.02,pywws,2013-08-16 17:37:00,
2013-08-16 18:42:00,73.0,63.5,29.97,North,-999,0.0,0.7,72,0.00,,,0.02,pywws,2013-08-16 17:42:00,
2013-08-16 18:48:00,74.1,64.1,29.97,North,-999,0.0,1.6,71,0.00,,,0.02,pywws,2013-08-16 17:48:00,
2013-08-16 18:53:00,75.2,64.7,29.97,North,-999,0.0,0.7,70,0.00,,,0.02,pywws,2013-08-16 17:53:00,
2013-08-16 19:04:00,76.1,65.2,29.97,North,-999,0.0,2.2,69,0.00,,,0.02,pywws,2013-08-16 18:04:00,
2013-08-16 19:09:00,73.9,62.7,29.98,West,270,0.7,3.1,68,0.00,,,0.02,pywws,2013-08-16 18:09:00,
2013-08-16 19:14:00,73.0,62.7,29.98,North,-999,0.0,1.6,70,0.00,,,0.02,pywws,2013-08-16 18:14:00,
2013-08-16 19:20:00,72.3,62.8,29.98,North,-999,0.0,1.6,72,0.00,,,0.02,pywws,2013-08-16 18:20:00,
2013-08-16 19:25:00,72.0,62.8,29.98,North,-999,0.0,2.2,73,0.00,,,0.02,pywws,2013-08-16 18:25:00,
2013-08-16 19:36:00,71.6,62.9,29.98,North,-999,0.0,2.2,74,0.00,,,0.02,pywws,2013-08-16 18:36:00,
2013-08-16 19:41:00,70.9,62.5,29.99,North,-999,0.0,2.2,75,0.00,,,0.02,pywws,2013-08-16 18:41:00,
2013-08-16 19:46:00,70.7,62.8,29.99,North,-999,0.0,1.6,76,0.00,,,0.02,pywws,2013-08-16 18:46:00,
2013-08-16 19:52:00,70.2,62.2,29.99,North,-999,0.0,0.7,76,0.00,,,0.02,pywws,2013-08-16 18:52:00,
2013-08-16 20:02:00,70.0,62.4,29.99,North,-999,0.0,0.7,77,0.00,,,0.02,pywws,2013-08-16 19:02:00,
2013-08-16 20:08:00,69.3,62.1,29.99,North,-999,0.0,0.0,78,0.00,,,0.02,pywws,2013-08-16 19:08:00,
2013-08-16 20:13:00,69.1,62.3,29.99,North,-999,0.0,0.7,79,0.00,,,0.02,pywws,2013-08-16 19:13:00,
2013-08-16 20:18:00,68.7,61.9,29.99,North,-999,0.0,0.7,79,0.00,,,0.02,pywws,2013-08-16 19:18:00,
2013-08-16 20:24:00,68.5,62.1,29.99,North,-999,0.0,1.6,80,0.00,,,0.02,pywws,2013-08-16 19:24:00,
2013-08-16 20:34:00,68.4,61.9,29.99,North,-999,0.0,1.6,80,0.00,,,0.02,pywws,2013-08-16 19:34:00,
2013-08-16 20:40:00,68.0,62.3,30.00,North,-999,0.0,0.7,82,0.00,,,0.02,pywws,2013-08-16 19:40:00,
2013-08-16 20:45:00,67.8,62.1,29.99,North,-999,0.0,0.7,82,0.00,,,0.02,pywws,2013-08-16 19:45:00,
2013-08-16 20:50:00,67.8,62.1,30.00,North,-999,0.0,0.7,82,0.00,,,0.02,pywws,2013-08-16 19:50:00,
2013-08-16 21:01:00,67.6,61.9,30.00,North,-999,0.0,1.6,82,0.00,,,0.02,pywws,2013-08-16 20:01:00,
2013-08-16 21:06:00,67.5,61.8,30.01,North,-999,0.0,0.0,82,0.00,,,0.02,pywws,2013-08-16 20:06:00,
2013-08-16 21:12:00,67.3,61.9,30.01,North,-999,0.0,0.0,83,0.00,,,0.02,pywws,2013-08-16 20:12:00,
2013-08-16 21:17:00,67.1,61.8,30.01,North,-999,0.0,0.0,83,0.00,,,0.02,pywws,2013-08-16 20:17:00,
2013-08-16 21:22:00,66.9,61.6,30.01,North,-999,0.0,0.0,83,0.00,,,0.02,pywws,2013-08-16 20:22:00,
2013-08-16 21:33:00,66.7,61.7,30.01,North,-999,0.0,0.7,84,0.00,,,0.02,pywws,2013-08-16 20:33:00,
2013-08-16 21:38:00,66.2,61.2,30.01,North,-999,0.0,0.0,84,0.00,,,0.02,pywws,2013-08-16 20:38:00,
2013-08-16 21:44:00,65.8,61.2,30.01,North,-999,0.0,0.0,85,0.00,,,0.02,pywws,2013-08-16 20:44:00,
2013-08-16 21:49:00,65.7,61.0,30.01,North,-999,0.0,0.0,85,0.00,,,0.02,pywws,2013-08-16 20:49:00,
2013-08-16 21:54:00,65.5,60.8,30.01,North,-999,0.0,0.0,85,0.00,,,0.02,pywws,2013-08-16 20:54:00,
2013-08-16 22:05:00,65.1,60.5,30.01,North,-999,0.0,0.0,85,0.00,,,0.02,pywws,2013-08-16 21:05:00,
2013-08-16 22:10:00,64.6,60.3,30.01,North,-999,0.0,0.0,86,0.00,,,0.02,pywws,2013-08-16 21:10:00,
2013-08-16 22:16:00,64.2,60.3,30.01,North,-999,0.0,0.0,87,0.00,,,0.02,pywws,2013-08-16 21:16:00,
2013-08-16 22:21:00,64.0,60.1,30.01,North,-999,0.0,0.0,87,0.00,,,0.02,pywws,2013-08-16 21:21:00,
2013-08-16 22:32:00,63.7,59.7,30.01,North,-999,0.0,0.0,87,0.00,,,0.02,pywws,2013-08-16 21:32:00,
2013-08-16 22:37:00,63.1,59.5,30.01,North,-999,0.0,0.0,88,0.00,,,0.02,pywws,2013-08-16 21:37:00,
2013-08-16 22:42:00,63.0,59.3,30.02,North,-999,0.0,0.0,88,0.00,,,0.02,pywws,2013-08-16 21:42:00,
2013-08-16 22:48:00,62.6,59.3,30.02,North,-999,0.0,0.0,89,0.00,,,0.02,pywws,2013-08-16 21:48:00,
2013-08-16 22:53:00,62.6,59.3,30.01,North,-999,0.0,0.0,89,0.00,,,0.02,pywws,2013-08-16 21:53:00,
2013-08-16 23:04:00,62.4,59.1,30.01,North,-999,0.0,0.0,89,0.00,,,0.02,pywws,2013-08-16 22:04:00,
2013-08-16 23:09:00,62.2,59.3,30.02,North,-999,0.0,0.0,90,0.00,,,0.02,pywws,2013-08-16 22:09:00,
2013-08-16 23:14:00,62.2,59.3,30.02,North,-999,0.0,0.0,90,0.00,,,0.02,pywws,2013-08-16 22:14:00,
2013-08-16 23:20:00,62.1,59.4,30.02,North,-999,0.0,0.0,91,0.00,,,0.02,pywws,2013-08-16 22:20:00,
2013-08-16 23:25:00,62.1,59.4,30.02,North,-999,0.0,0.0,91,0.00,,,0.02,pywws,2013-08-16 22:25:00,
2013-08-16 23:36:00,62.1,59.4,30.01,North,-999,0.0,0.0,91,0.00,,,0.02,pywws,2013-08-16 22:36:00,
2013-08-16 23:41:00,61.5,58.9,30.02,North,-999,0.0,0.0,91,0.00,,,0.02,pywws,2013-08-16 22:41:00,
2013-08-16 23:46:00,61.5,58.9,30.02,North,-999,0.0,0.0,91,0.00,,,0.02,pywws,2013-08-16 22:46:00,
2013-08-16 23:52:00,61.2,58.5,30.02,North,-999,0.0,0.0,91,0.00,,,0.02,pywws,2013-08-16 22:52:00,